Terminal Aerodrome Forecast
Issued by NWS

Home | Current Version | Previous Version | Text Only | Print | Product List | Glossary On
Versions: 1 2 3 4 5 6 7 8 9 10 11 12 13 14 15 16 17 18 19 20 21 22 23 24 25 26 27 28 29 30 31 32 33
000
FTAK31 PAFA 281903 AAA
TAFAMC
TAF AMD
PAMC 281903Z 2819/0118 14003KT 1SM -SN BR BKN010 BKN014 OVC022
     FM282200 35015G25KT 1SM BR OVC010
     FM010600 VRB03KT 5SM BR BKN010=

USA.gov is the U.S. government's official web portal to all federal, state and local government web resources and services.